No particular awareness of the weather is required.    There are no Weather-warnings


Meteo18 Weather Cam more information Meteo18 Weather Cam


Thunder radar more information blitzortung!


Rain radar more information rain snow radar


Visit our other weather sites:

Template documentation
and downloads

And another site



Weather Underground History page Text

Daily Summary for March 27, 2017 Units:  English    Metric   Both
« Previous Day
Next Day »
Daily Weekly Monthly Yearly Custom
  High: Low: Average:
Temperature: TemperatureC °F 5.6 °F 12.6 °F
Dew Point: DewpointC °F 3.6 °F 6 °F
Humidity: Humidity % 39 % 66 %
Wind Speed: WindSpeedKMH mph 0.0 mph 2.8 mph
Wind Gust: WindSpeedGustKMH mph - -
Wind:- - South
Pressure: PressurehPa in 1018.8 in -
Precipitation: 0.0 in    
Historical Graphs
 
 
Tabular Data for March 27, 2017
Time Temperature Dew Point Pressure Wind Wind Speed Wind Gust Humidity Rainfall Rate (Hourly)
TemperatureC °F DewpointC °F PressurehPa in Calm     Humidity % HourlyPrecipMM in
00:02 10.3 °F 5.7 °F 1020.9 in Calm   6.4 mph 73 % 0.0 in
00:12 10.2 °F 5.8 °F 1020.5 in ENE 1.6 mph 4.8 mph 74 % 0.0 in
00:17 10.1 °F 5.9 °F 1020.5 in Calm   4.8 mph 75 % 0.0 in
00:22 10.1 °F 5.9 °F 1020.5 in NNE 1.6 mph 4.8 mph 75 % 0.0 in
00:32 10.1 °F 5.9 °F 1020.5 in Calm   3.2 mph 75 % 0.0 in
00:42 10.0 °F 5.8 °F 1020.5 in Calm   1.6 mph 75 % 0.0 in
00:52 9.2 °F 5.6 °F 1020.5 in WNW 1.6 mph 3.2 mph 78 % 0.0 in
00:57 9.6 °F 5.8 °F 1020.5 in NNW 1.6 mph 3.2 mph 77 % 0.0 in
01:02 9.6 °F 5.6 °F 1020.5 in NNW 1.6 mph 3.2 mph 76 % 0.0 in
01:12 9.2 °F 5.7 °F 1020.5 in Calm   3.2 mph 79 % 0.0 in
01:17 9.3 °F 5.7 °F 1020.5 in NNW 1.6 mph 1.6 mph 78 % 0.0 in
01:22 9.3 °F 5.7 °F 1020.5 in Calm   1.6 mph 78 % 0.0 in
01:27 9.3 °F 5.5 °F 1020.5 in NNW 1.6 mph 1.6 mph 77 % 0.0 in
01:32 9.3 °F 5.5 °F 1020.5 in NNW 1.6 mph 1.6 mph 77 % 0.0 in
01:42 9.2 °F 5.6 °F 1020.5 in Calm   3.2 mph 78 % 0.0 in
01:52 9.1 °F 5.7 °F 1020.5 in Calm   3.2 mph 79 % 0.0 in
01:57 8.8 °F 5.4 °F 1020.5 in North 1.6 mph 6.4 mph 79 % 0.0 in
02:02 8.7 °F 5.4 °F 1020.5 in North 3.2 mph 6.4 mph 80 % 0.0 in
02:12 8.8 °F 5.5 °F 1020.5 in Calm   4.8 mph 80 % 0.0 in
02:17 8.7 °F 5.3 °F 1020.2 in Calm   3.2 mph 79 % 0.0 in
02:22 8.3 °F 5.1 °F 1020.2 in North 1.6 mph 3.2 mph 80 % 0.0 in
02:27 8.1 °F 5.2 °F 1020.2 in North 1.6 mph 3.2 mph 82 % 0.0 in
02:37 8.2 °F 5.3 °F 1020.2 in Calm   3.2 mph 82 % 0.0 in
02:42 8.2 °F 5.3 °F 1020.2 in NNE 3.2 mph 4.8 mph 82 % 0.0 in
02:47 7.9 °F 5.0 °F 1020.2 in North 3.2 mph 4.8 mph 82 % 0.0 in
02:52 7.9 °F 5.2 °F 1020.2 in Calm   4.8 mph 83 % 0.0 in
02:57 7.8 °F 5.1 °F 1020.2 in Calm   4.8 mph 83 % 0.0 in
03:02 7.8 °F 5.1 °F 1020.2 in Calm   4.8 mph 83 % 0.0 in
03:12 7.9 °F 5.2 °F 1020.2 in Calm   3.2 mph 83 % 0.0 in
03:17 7.9 °F 5.2 °F 1019.9 in NW 1.6 mph 3.2 mph 83 % 0.0 in
03:22 7.9 °F 5.2 °F 1019.9 in Calm   3.2 mph 83 % 0.0 in
03:32 7.7 °F 5.0 °F 1019.9 in WNW 1.6 mph 1.6 mph 83 % 0.0 in
03:37 7.4 °F 4.9 °F 1019.9 in WNW 1.6 mph 1.6 mph 84 % 0.0 in
03:42 7.9 °F 5.4 °F 1019.9 in WNW 1.6 mph 3.2 mph 84 % 0.0 in
03:47 8.2 °F 5.3 °F 1019.9 in Calm   3.2 mph 82 % 0.0 in
03:52 8.1 °F 5.2 °F 1019.9 in Calm   3.2 mph 82 % 0.0 in
03:57 8.1 °F 5.2 °F 1019.9 in Calm   1.6 mph 82 % 0.0 in
04:02 8.1 °F 5.0 °F 1019.9 in Calm   1.6 mph 81 % 0.0 in
04:07 8.0 °F 5.1 °F 1019.9 in Calm     82 % 0.0 in
04:12 8.1 °F 5.2 °F 1019.9 in Calm     82 % 0.0 in
04:17 8.0 °F 5.1 °F 1019.9 in Calm     82 % 0.0 in
04:22 8.2 °F 5.1 °F 1019.9 in Calm     81 % 0.0 in
04:32 8.2 °F 5.1 °F 1019.9 in Calm     81 % 0.0 in
04:37 8.1 °F 5.0 °F 1019.9 in Calm     81 % 0.0 in
04:42 7.9 °F 4.8 °F 1019.5 in Calm     81 % 0.0 in
04:47 7.7 °F 4.6 °F 1019.5 in Calm     81 % 0.0 in
04:52 7.5 °F 5.0 °F 1019.5 in Calm     84 % 0.0 in
05:02 7.6 °F 4.7 °F 1019.5 in Calm     82 % 0.0 in
05:12 7.9 °F 5.0 °F 1019.5 in Calm     82 % 0.0 in
05:17 7.8 °F 4.9 °F 1019.5 in Calm     82 % 0.0 in
05:22 7.7 °F 4.8 °F 1019.5 in Calm     82 % 0.0 in
05:27 7.6 °F 4.9 °F 1019.2 in Calm     83 % 0.0 in
05:32 7.4 °F 4.7 °F 1019.5 in NNE 3.2 mph   83 % 0.0 in
05:42 7.1 °F 4.2 °F 1019.2 in Calm   3.2 mph 82 % 0.0 in
05:52 6.7 °F 4.5 °F 1019.5 in Calm   3.2 mph 86 % 0.0 in
05:57 6.7 °F 4.4 °F 1019.5 in Calm   3.2 mph 85 % 0.0 in
06:02 6.2 °F 3.9 °F 1019.5 in Calm   1.6 mph 85 % 0.0 in
06:12 6.1 °F 3.9 °F 1019.5 in Calm   1.6 mph 86 % 0.0 in
06:17 6.1 °F 4.4 °F 1019.5 in Calm   1.6 mph 89 % 0.0 in
06:22 6.4 °F 4.6 °F 1019.5 in Calm     88 % 0.0 in
06:32 6.6 °F 4.6 °F 1019.5 in Calm     87 % 0.0 in
06:37 6.8 °F 4.8 °F 1019.5 in Calm     87 % 0.0 in
06:42 6.9 °F 4.7 °F 1019.5 in Calm     86 % 0.0 in
06:47 7.1 °F 4.9 °F 1019.5 in Calm     86 % 0.0 in
06:52 7.1 °F 4.7 °F 1019.5 in Calm     85 % 0.0 in
07:02 6.4 °F 4.1 °F 1019.5 in Calm     85 % 0.0 in
07:07 6.5 °F 4.5 °F 1019.5 in Calm     87 % 0.0 in
07:12 6.6 °F 4.4 °F 1019.5 in Calm     86 % 0.0 in
07:17 6.3 °F 3.8 °F 1019.5 in Calm     84 % 0.0 in
07:22 5.9 °F 3.9 °F 1019.5 in WNW 1.6 mph   87 % 0.0 in
07:27 5.8 °F 4.0 °F 1019.5 in Calm     88 % 0.0 in
07:32 6.1 °F 4.4 °F 1019.5 in Calm   3.2 mph 89 % 0.0 in
07:37 6.1 °F 4.3 °F 1019.5 in Calm   3.2 mph 88 % 0.0 in
07:42 5.9 °F 4.1 °F 1019.9 in Calm   1.6 mph 88 % 0.0 in
07:52 6.1 °F 4.3 °F 1019.9 in Calm   3.2 mph 88 % 0.0 in
08:02 5.6 °F 3.6 °F 1019.9 in West 1.6 mph 3.2 mph 87 % 0.0 in
08:12 6.0 °F 4.3 °F 1019.9 in Calm   4.8 mph 89 % 0.0 in
08:17 6.3 °F 4.6 °F 1019.9 in Calm   4.8 mph 89 % 0.0 in
08:22 5.9 °F 3.6 °F 1019.9 in WNW 1.6 mph 1.6 mph 85 % 0.0 in
08:32 6.3 °F 4.6 °F 1019.9 in North 1.6 mph 3.2 mph 89 % 0.0 in
08:42 7.1 °F 4.9 °F 1019.9 in Calm   4.8 mph 86 % 0.0 in
08:47 7.3 °F 4.9 °F 1019.9 in NE 3.2 mph 4.8 mph 85 % 0.0 in
08:52 7.4 °F 4.9 °F 1019.9 in NNE 1.6 mph 4.8 mph 84 % 0.0 in
09:02 7.7 °F 5.2 °F 1019.9 in Calm   6.4 mph 84 % 0.0 in
09:12 8.4 °F 6.0 °F 1019.9 in Calm   6.4 mph 85 % 0.0 in
09:17 8.5 °F 5.8 °F 1019.9 in Calm   6.4 mph 83 % 0.0 in
09:22 8.8 °F 6.1 °F 1019.9 in Calm   4.8 mph 83 % 0.0 in
09:32 9.1 °F 5.8 °F 1019.9 in North 1.6 mph 4.8 mph 80 % 0.0 in
09:42 9.6 °F 6.1 °F 1019.5 in East 1.6 mph 3.2 mph 79 % 0.0 in
09:47 9.9 °F 6.2 °F 1019.9 in Calm   3.2 mph 78 % 0.0 in
09:52 9.9 °F 6.2 °F 1019.9 in Calm   4.8 mph 78 % 0.0 in
10:02 10.0 °F 6.7 °F 1019.9 in ENE 1.6 mph 8.0 mph 80 % 0.0 in
10:12 10.4 °F 6.5 °F 1019.9 in ENE 4.8 mph 6.4 mph 77 % 0.0 in
10:17 10.6 °F 6.7 °F 1019.9 in East 4.8 mph 6.4 mph 77 % 0.0 in
10:22 10.7 °F 6.8 °F 1019.9 in NE 3.2 mph 8.0 mph 77 % 0.0 in
10:32 11.2 °F 7.3 °F 1019.5 in ENE 4.8 mph 9.7 mph 77 % 0.0 in
10:42 11.6 °F 7.5 °F 1019.9 in East 3.2 mph 9.7 mph 76 % 0.0 in
10:52 12.3 °F 7.2 °F 1019.9 in SE 3.2 mph 8.0 mph 71 % 0.0 in
11:02 12.4 °F 6.7 °F 1019.9 in East 6.4 mph 12.9 mph 68 % 0.0 in
11:12 12.6 °F 7.1 °F 1019.9 in ENE 3.2 mph 12.9 mph 69 % 0.0 in
11:17 12.6 °F 6.8 °F 1019.9 in ESE 6.4 mph 12.9 mph 68 % 0.0 in
11:22 12.8 °F 7.5 °F 1019.9 in ESE 1.6 mph 12.9 mph 70 % 0.0 in
11:32 13.2 °F 7.2 °F 1019.9 in SE 6.4 mph 9.7 mph 67 % 0.0 in
11:37 13.1 °F 7.5 °F 1019.9 in ESE 3.2 mph 9.7 mph 69 % 0.0 in
11:42 13.5 °F 7.9 °F 1019.9 in SE 4.8 mph 9.7 mph 69 % 0.0 in
11:47 13.5 °F 7.7 °F 1019.9 in East 4.8 mph 9.7 mph 68 % 0.0 in
11:52 13.7 °F 7.9 °F 1019.9 in SE 4.8 mph 8.0 mph 68 % 0.0 in
11:57 13.7 °F 7.7 °F 1019.9 in SE 3.2 mph 8.0 mph 67 % 0.0 in
12:02 14.0 °F 8.0 °F 1019.9 in East 3.2 mph 9.7 mph 67 % 0.0 in
12:12 14.3 °F 7.8 °F 1019.5 in Calm   11.3 mph 65 % 0.0 in
12:17 14.6 °F 8.3 °F 1019.5 in ESE 3.2 mph 11.3 mph 66 % 0.0 in
12:22 14.8 °F 7.6 °F 1019.5 in Calm   9.7 mph 62 % 0.0 in
12:32 14.9 °F 7.4 °F 1019.5 in SSE 3.2 mph 9.7 mph 61 % 0.0 in
12:37 15.3 °F 8.3 °F 1019.5 in ENE 3.2 mph 9.7 mph 63 % 0.0 in
12:42 15.4 °F 7.7 °F 1019.5 in East 6.4 mph 9.7 mph 60 % 0.0 in
12:47 15.6 °F 7.4 °F 1019.5 in SSE 3.2 mph 9.7 mph 58 % 0.0 in
12:52 15.9 °F 7.9 °F 1019.5 in ENE 6.4 mph 12.9 mph 59 % 0.0 in
13:02 16.3 °F 8.0 °F 1019.5 in SE 4.8 mph 17.7 mph 58 % 0.0 in
13:12 16.4 °F 7.1 °F 1019.5 in SE 9.7 mph 17.7 mph 54 % 0.0 in
13:17 16.3 °F 7.0 °F 1019.5 in ESE 9.7 mph 16.1 mph 54 % 0.0 in
13:22 16.3 °F 6.7 °F 1019.5 in East 6.4 mph 16.1 mph 53 % 0.0 in
13:27 16.3 °F 6.4 °F 1019.5 in South 3.2 mph 16.1 mph 52 % 0.0 in
13:32 16.5 °F 6.9 °F 1019.5 in SSE 11.3 mph 19.3 mph 53 % 0.0 in
13:37 16.4 °F 7.1 °F 1019.5 in SE 4.8 mph 19.3 mph 54 % 0.0 in
13:42 16.7 °F 7.3 °F 1019.5 in ESE 6.4 mph 19.3 mph 54 % 0.0 in
13:47 16.7 °F 7.1 °F 1019.5 in SSE 9.7 mph 19.3 mph 53 % 0.0 in
13:52 16.7 °F 6.5 °F 1019.2 in South 9.7 mph 19.3 mph 51 % 0.0 in
13:57 16.8 °F 7.2 °F 1019.2 in ESE 6.4 mph 19.3 mph 53 % 0.0 in
14:02 16.9 °F 6.4 °F 1019.2 in SE 8.0 mph 19.3 mph 50 % 0.0 in
14:12 17.3 °F 7.3 °F 1019.2 in East 4.8 mph 19.3 mph 52 % 0.0 in
14:17 17.4 °F 7.2 °F 1019.2 in East 11.3 mph 16.1 mph 51 % 0.0 in
14:22 17.1 °F 6.6 °F 1019.2 in SE 9.7 mph 16.1 mph 50 % 0.0 in
14:27 17.0 °F 6.8 °F 1019.2 in SE 11.3 mph 22.5 mph 51 % 0.0 in
14:32 17.2 °F 6.7 °F 1019.2 in SE 8.0 mph 22.5 mph 50 % 0.0 in
14:37 17.1 °F 6.3 °F 1019.2 in ESE 11.3 mph 22.5 mph 49 % 0.0 in
14:42 17.0 °F 6.8 °F 1019.2 in ENE 8.0 mph 19.3 mph 51 % 0.0 in
14:47 17.3 °F 7.1 °F 1019.2 in SSE 4.8 mph 19.3 mph 51 % 0.0 in
14:52 17.1 °F 6.0 °F 1019.2 in SSW 6.4 mph 19.3 mph 48 % 0.0 in
15:02 17.3 °F 6.5 °F 1019.2 in ESE 6.4 mph 16.1 mph 49 % 0.0 in
15:12 17.4 °F 7.7 °F 1019.2 in SE 9.7 mph 17.7 mph 53 % 0.0 in
15:17 17.4 °F 6.3 °F 1019.2 in East 9.7 mph 19.3 mph 48 % 0.0 in
15:22 17.4 °F 7.4 °F 1019.2 in SE 8.0 mph 19.3 mph 52 % 0.0 in
15:27 17.6 °F 6.8 °F 1018.8 in ESE 4.8 mph 20.9 mph 49 % 0.0 in
15:32 17.7 °F 7.7 °F 1018.8 in NE 9.7 mph 20.9 mph 52 % 0.0 in
15:37 17.6 °F 7.6 °F 1018.8 in East 4.8 mph 20.9 mph 52 % 0.0 in
15:42 17.9 °F 7.9 °F 1018.8 in SE 9.7 mph 12.9 mph 52 % 0.0 in
15:47 17.9 °F 6.4 °F 1018.8 in ESE 1.6 mph 14.5 mph 47 % 0.0 in
15:52 17.9 °F 7.0 °F 1018.8 in ESE 3.2 mph 19.3 mph 49 % 0.0 in
15:57 18.3 °F 5.8 °F 1018.8 in South 8.0 mph 19.3 mph 44 % 0.0 in
16:02 18.5 °F 5.3 °F 1018.8 in SE 9.7 mph 16.1 mph 42 % 0.0 in
16:12 18.7 °F 5.2 °F 1018.8 in SE 4.8 mph 14.5 mph 41 % 0.0 in
16:17 18.8 °F 5.6 °F 1018.8 in SSW 9.7 mph 17.7 mph 42 % 0.0 in
16:22 18.9 °F 5.7 °F 1018.8 in SSE 12.9 mph 17.7 mph 42 % 0.0 in
16:32 18.8 °F 5.6 °F 1018.8 in SSE 11.3 mph 17.7 mph 42 % 0.0 in
16:37 18.9 °F 6.0 °F 1018.8 in SE 3.2 mph 17.7 mph 43 % 0.0 in
16:42 19.2 °F 6.3 °F 1018.8 in SSE 6.4 mph 16.1 mph 43 % 0.0 in
16:47 19.3 °F 6.1 °F 1018.8 in SE 3.2 mph 19.3 mph 42 % 0.0 in
16:52 19.3 °F 5.0 °F 1018.8 in SW 9.7 mph 19.3 mph 39 % 0.0 in
17:02 19.3 °F 5.7 °F 1018.8 in SE 3.2 mph 16.1 mph 41 % 0.0 in
17:12 19.4 °F 6.2 °F 1018.8 in SSW 6.4 mph 16.1 mph 42 % 0.0 in
17:17 19.3 °F 5.7 °F 1018.8 in South 14.5 mph 17.7 mph 41 % 0.0 in
17:22 19.2 °F 6.0 °F 1018.8 in SSE 8.0 mph 17.7 mph 42 % 0.0 in
17:32 19.4 °F 6.5 °F 1018.8 in SSW 8.0 mph 20.9 mph 43 % 0.0 in
17:37 19.6 °F 6.3 °F 1018.8 in SSW 8.0 mph 20.9 mph 42 % 0.0 in
17:42 19.7 °F 6.8 °F 1018.8 in South 3.2 mph 14.5 mph 43 % 0.0 in
17:52 19.7 °F 6.1 °F 1018.8 in SSE 11.3 mph 16.1 mph 41 % 0.0 in
17:57 19.7 °F 6.1 °F 1018.8 in SSE 1.6 mph 16.1 mph 41 % 0.0 in
18:02 19.6 °F 6.3 °F 1018.8 in SSW 1.6 mph 16.1 mph 42 % 0.0 in
18:12 19.9 °F 6.9 °F 1018.8 in SSE 6.4 mph 16.1 mph 43 % 0.0 in
18:17 19.7 °F 7.1 °F 1019.2 in SE 1.6 mph 9.7 mph 44 % 0.0 in
18:22 19.8 °F 7.2 °F 1019.2 in ESE 3.2 mph 9.7 mph 44 % 0.0 in
18:32 19.8 °F 6.5 °F 1019.2 in SSE 4.8 mph 11.3 mph 42 % 0.0 in
18:37 19.7 °F 6.4 °F 1019.2 in SE 3.2 mph 9.7 mph 42 % 0.0 in
18:42 19.7 °F 6.8 °F 1019.2 in SSE 3.2 mph 9.7 mph 43 % 0.0 in
18:52 19.4 °F 6.5 °F 1019.2 in SE 6.4 mph 11.3 mph 43 % 0.0 in
18:57 19.3 °F 7.1 °F 1019.2 in Calm   11.3 mph 45 % 0.0 in
19:02 19.3 °F 6.4 °F 1019.2 in Calm   11.3 mph 43 % 0.0 in
19:12 19.3 °F 6.4 °F 1018.8 in SSE 1.6 mph 8.0 mph 43 % 0.0 in
19:17 19.3 °F 7.4 °F 1019.2 in SE 3.2 mph 8.0 mph 46 % 0.0 in
19:22 19.4 °F 6.8 °F 1019.2 in Calm   8.0 mph 44 % 0.0 in
19:27 19.6 °F 6.7 °F 1019.2 in SSE 1.6 mph 8.0 mph 43 % 0.0 in
19:32 19.6 °F 7.0 °F 1019.2 in Calm   6.4 mph 44 % 0.0 in
19:37 19.7 °F 7.1 °F 1019.2 in Calm   6.4 mph 44 % 0.0 in
19:42 19.7 °F 7.4 °F 1019.2 in Calm   6.4 mph 45 % 0.0 in
19:47 19.5 °F 7.6 °F 1019.2 in Calm   3.2 mph 46 % 0.0 in
19:52 19.3 °F 7.4 °F 1019.2 in Calm   1.6 mph 46 % 0.0 in
19:57 18.7 °F 7.2 °F 1019.2 in Calm   1.6 mph 47 % 0.0 in
20:02 18.3 °F 7.1 °F 1019.2 in Calm     48 % 0.0 in
20:07 17.9 °F 6.7 °F 1019.2 in Calm     48 % 0.0 in
20:12 17.4 °F 6.9 °F 1019.5 in Calm     50 % 0.0 in
20:22 16.6 °F 6.7 °F 1019.5 in Calm     52 % 0.0 in
20:27 16.3 °F 6.7 °F 1019.5 in Calm     53 % 0.0 in
20:37 16.1 °F 6.5 °F 1019.5 in Calm   1.6 mph 53 % 0.0 in
20:42 16.1 °F 6.5 °F 1019.5 in Calm   1.6 mph 53 % 0.0 in
20:52 15.7 °F 6.4 °F 1019.5 in Calm   1.6 mph 54 % 0.0 in
20:57 15.2 °F 6.5 °F 1019.5 in NNW 3.2 mph   56 % 0.0 in
21:02 14.8 °F 6.4 °F 1019.5 in WNW 1.6 mph 3.2 mph 57 % 0.0 in
21:12 14.3 °F 6.4 °F 1019.9 in WNW 3.2 mph 4.8 mph 59 % 0.0 in
21:17 14.6 °F 6.4 °F 1019.9 in WNW 1.6 mph 3.2 mph 58 % 0.0 in
21:22 14.4 °F 6.5 °F 1019.9 in WNW 1.6 mph 3.2 mph 59 % 0.0 in
21:32 13.9 °F 6.3 °F 1019.9 in NW 1.6 mph 3.2 mph 60 % 0.0 in
21:42 13.2 °F 6.5 °F 1019.9 in NNW 3.2 mph 3.2 mph 64 % 0.0 in
21:47 13.0 °F 6.6 °F 1019.9 in NW 3.2 mph 3.2 mph 65 % 0.0 in
21:52 13.1 °F 6.4 °F 1020.2 in Calm   4.8 mph 64 % 0.0 in
21:57 12.9 °F 6.0 °F 1020.2 in Calm   4.8 mph 63 % 0.0 in
22:02 12.9 °F 6.0 °F 1020.2 in NW 3.2 mph 4.8 mph 63 % 0.0 in
22:07 13.2 °F 6.3 °F 1020.2 in Calm   3.2 mph 63 % 0.0 in
22:12 12.8 °F 6.4 °F 1020.2 in NW 1.6 mph 3.2 mph 65 % 0.0 in
22:17 12.3 °F 6.1 °F 1020.2 in NW 1.6 mph 3.2 mph 66 % 0.0 in
22:22 12.2 °F 6.0 °F 1020.2 in Calm   3.2 mph 66 % 0.0 in
22:27 12.1 °F 5.9 °F 1020.5 in North 3.2 mph 3.2 mph 66 % 0.0 in
22:32 12.2 °F 6.0 °F 1020.2 in NNW 3.2 mph 4.8 mph 66 % 0.0 in
22:37 12.5 °F 5.9 °F 1020.5 in North 3.2 mph 4.8 mph 64 % 0.0 in
22:42 12.5 °F 5.9 °F 1020.5 in NNW 1.6 mph 4.8 mph 64 % 0.0 in
22:52 11.9 °F 6.0 °F 1020.5 in ESE 3.2 mph 4.8 mph 67 % 0.0 in
22:57 11.2 °F 5.9 °F 1020.5 in NE 3.2 mph 3.2 mph 70 % 0.0 in
23:02 11.4 °F 6.1 °F 1020.5 in NE 3.2 mph 4.8 mph 70 % 0.0 in
23:07 11.6 °F 5.9 °F 1020.5 in Calm   4.8 mph 68 % 0.0 in
23:12 11.7 °F 5.8 °F 1020.5 in NNW 3.2 mph 4.8 mph 67 % 0.0 in
23:17 11.6 °F 5.7 °F 1020.5 in WNW 4.8 mph 4.8 mph 67 % 0.0 in
23:22 11.2 °F 5.5 °F 1020.5 in WNW 1.6 mph 4.8 mph 68 % 0.0 in
23:32 11.6 °F 5.5 °F 1020.5 in WNW 1.6 mph 4.8 mph 66 % 0.0 in
23:37 11.2 °F 5.5 °F 1020.9 in WNW 1.6 mph 4.8 mph 68 % 0.0 in
23:42 11.0 °F 5.5 °F 1020.9 in WNW 1.6 mph 4.8 mph 69 % 0.0 in
23:52 10.3 °F 5.3 °F 1020.9 in West 1.6 mph 3.2 mph 71 % 0.0 in
23:57 10.1 °F 5.5 °F 1020.9 in West 1.6 mph 3.2 mph 73 % 0.0 in
Meteo18
Compliments of Weather Underground - 4 mb

Script developed by  Jim McMurry - jmcmurry@mwt.net Adapted for the template by  Wim van der Kuil - Leuven-Template.eu

You find our weather info also at:

European Weather Network

Weather Underground

Equipment we use:

Weather-station
Davis Vue

Weather-program
Meteobridge

Weather-server
Raspberry PI 2 B+

Provider
1 and 1

Davis Vue

Meteobridge

Raspberry PI 2 B+

1 and 1